sensor_id;sensor_type;location;lat;lon;timestamp;temperature;humidity
23556;DHT22;11956;53.184;8.578;2022-11-20T00:01:38;2.00;99.90
23556;DHT22;11956;53.184;8.578;2022-11-20T00:04:39;1.80;99.90
23556;DHT22;11956;53.184;8.578;2022-11-20T00:07:40;1.80;99.90
23556;DHT22;11956;53.184;8.578;2022-11-20T00:10:41;1.80;99.90
23556;DHT22;11956;53.184;8.578;2022-11-20T00:13:43;1.80;99.90
23556;DHT22;11956;53.184;8.578;2022-11-20T00:16:45;1.80;99.90
23556;DHT22;11956;53.184;8.578;2022-11-20T00:19:46;1.80;99.90
23556;DHT22;11956;53.184;8.578;2022-11-20T00:22:47;1.80;99.90
23556;DHT22;11956;53.184;8.578;2022-11-20T00:25:48;1.80;99.90
23556;DHT22;11956;53.184;8.578;2022-11-20T00:28:54;1.80;99.90
23556;DHT22;11956;53.184;8.578;2022-11-20T00:31:56;1.80;99.90
23556;DHT22;11956;53.184;8.578;2022-11-20T00:34:57;1.80;99.90
23556;DHT22;11956;53.184;8.578;2022-11-20T00:37:58;1.80;99.90
23556;DHT22;11956;53.184;8.578;2022-11-20T00:41:01;1.80;99.90
23556;DHT22;11956;53.184;8.578;2022-11-20T00:44:03;1.70;99.90
23556;DHT22;11956;53.184;8.578;2022-11-20T00:47:04;1.70;99.90
23556;DHT22;11956;53.184;8.578;2022-11-20T00:50:05;1.70;99.90
23556;DHT22;11956;53.184;8.578;2022-11-20T00:53:06;1.70;99.90
23556;DHT22;11956;53.184;8.578;2022-11-20T00:56:10;1.70;99.90
23556;DHT22;11956;53.184;8.578;2022-11-20T00:59:12;1.70;99.90
23556;DHT22;11956;53.184;8.578;2022-11-20T01:02:13;1.70;99.90
23556;DHT22;11956;53.184;8.578;2022-11-20T01:05:15;1.70;99.90
23556;DHT22;11956;53.184;8.578;2022-11-20T01:08:16;1.70;99.90
23556;DHT22;11956;53.184;8.578;2022-11-20T01:11:22;1.80;99.90
23556;DHT22;11956;53.184;8.578;2022-11-20T01:14:25;1.70;99.90
23556;DHT22;11956;53.184;8.578;2022-11-20T01:17:26;1.70;99.90
23556;DHT22;11956;53.184;8.578;2022-11-20T01:20:26;1.70;99.90
23556;DHT22;11956;53.184;8.578;2022-11-20T01:23:33;1.70;99.90
23556;DHT22;11956;53.184;8.578;2022-11-20T01:26:37;1.70;99.90
23556;DHT22;11956;53.184;8.578;2022-11-20T01:29:38;1.70;99.90
23556;DHT22;11956;53.184;8.578;2022-11-20T01:32:39;1.70;99.90
23556;DHT22;11956;53.184;8.578;2022-11-20T01:35:40;1.60;99.90
23556;DHT22;11956;53.184;8.578;2022-11-20T01:38:41;1.70;99.90
23556;DHT22;11956;53.184;8.578;2022-11-20T01:41:43;1.70;99.90
23556;DHT22;11956;53.184;8.578;2022-11-20T01:49:24;1.70;99.90
23556;DHT22;11956;53.184;8.578;2022-11-20T01:52:39;1.70;99.90
23556;DHT22;11956;53.184;8.578;2022-11-20T01:55:49;1.80;99.90
23556;DHT22;11956;53.184;8.578;2022-11-20T01:58:55;1.70;99.90
23556;DHT22;11956;53.184;8.578;2022-11-20T02:01:58;1.80;99.90
23556;DHT22;11956;53.184;8.578;2022-11-20T02:05:04;1.80;99.90
23556;DHT22;11956;53.184;8.578;2022-11-20T02:08:12;1.80;99.90
23556;DHT22;11956;53.184;8.578;2022-11-20T02:11:13;1.70;99.90
23556;DHT22;11956;53.184;8.578;2022-11-20T02:14:15;1.70;99.90
23556;DHT22;11956;53.184;8.578;2022-11-20T02:17:16;1.80;99.90
23556;DHT22;11956;53.184;8.578;2022-11-20T02:20:16;1.70;99.90
23556;DHT22;11956;53.184;8.578;2022-11-20T02:23:28;1.70;99.90
23556;DHT22;11956;53.184;8.578;2022-11-20T02:27:08;1.70;99.90
23556;DHT22;11956;53.184;8.578;2022-11-20T02:30:11;1.70;99.90
23556;DHT22;11956;53.184;8.578;2022-11-20T02:33:13;1.80;99.90
23556;DHT22;11956;53.184;8.578;2022-11-20T02:36:15;1.90;99.90
23556;DHT22;11956;53.184;8.578;2022-11-20T02:39:16;1.90;99.90
23556;DHT22;11956;53.184;8.578;2022-11-20T02:42:18;1.90;99.90
23556;DHT22;11956;53.184;8.578;2022-11-20T02:45:19;1.90;99.90
23556;DHT22;11956;53.184;8.578;2022-11-20T02:48:20;1.90;99.90
23556;DHT22;11956;53.184;8.578;2022-11-20T02:51:21;2.00;99.90
23556;DHT22;11956;53.184;8.578;2022-11-20T02:54:22;2.00;99.90
23556;DHT22;11956;53.184;8.578;2022-11-20T02:57:24;2.00;99.90
23556;DHT22;11956;53.184;8.578;2022-11-20T03:00:24;2.00;99.90
23556;DHT22;11956;53.184;8.578;2022-11-20T03:03:25;2.00;99.90
23556;DHT22;11956;53.184;8.578;2022-11-20T03:06:26;2.00;99.90
23556;DHT22;11956;53.184;8.578;2022-11-20T03:09:27;2.00;99.90
23556;DHT22;11956;53.184;8.578;2022-11-20T03:12:28;1.90;99.90
23556;DHT22;11956;53.184;8.578;2022-11-20T03:15:29;1.90;99.90
23556;DHT22;11956;53.184;8.578;2022-11-20T03:18:30;1.90;99.90
23556;DHT22;11956;53.184;8.578;2022-11-20T03:21:32;1.90;99.90
23556;DHT22;11956;53.184;8.578;2022-11-20T03:24:34;1.80;99.90
23556;DHT22;11956;53.184;8.578;2022-11-20T03:27:35;1.90;99.90
23556;DHT22;11956;53.184;8.578;2022-11-20T03:30:36;1.90;99.90
23556;DHT22;11956;53.184;8.578;2022-11-20T03:33:37;1.90;99.90
23556;DHT22;11956;53.184;8.578;2022-11-20T03:36:40;1.90;99.90
23556;DHT22;11956;53.184;8.578;2022-11-20T03:39:41;2.00;99.90
23556;DHT22;11956;53.184;8.578;2022-11-20T03:42:42;1.90;99.90
23556;DHT22;11956;53.184;8.578;2022-11-20T03:45:46;1.90;99.90
23556;DHT22;11956;53.184;8.578;2022-11-20T03:48:48;1.90;99.90
23556;DHT22;11956;53.184;8.578;2022-11-20T03:51:49;1.90;99.90
23556;DHT22;11956;53.184;8.578;2022-11-20T03:54:50;1.80;99.90
23556;DHT22;11956;53.184;8.578;2022-11-20T03:57:50;1.90;99.90
23556;DHT22;11956;53.184;8.578;2022-11-20T04:00:51;1.90;99.90
23556;DHT22;11956;53.184;8.578;2022-11-20T04:03:54;2.00;99.90
23556;DHT22;11956;53.184;8.578;2022-11-20T04:06:55;2.00;99.90
23556;DHT22;11956;53.184;8.578;2022-11-20T04:09:56;2.00;99.90
23556;DHT22;11956;53.184;8.578;2022-11-20T04:12:57;1.90;99.90
23556;DHT22;11956;53.184;8.578;2022-11-20T04:15:58;1.90;99.90
23556;DHT22;11956;53.184;8.578;2022-11-20T04:19:02;1.90;99.90
23556;DHT22;11956;53.184;8.578;2022-11-20T04:22:03;1.90;99.90
23556;DHT22;11956;53.184;8.578;2022-11-20T04:25:04;2.00;99.90
23556;DHT22;11956;53.184;8.578;2022-11-20T04:28:06;2.10;99.90
23556;DHT22;11956;53.184;8.578;2022-11-20T04:31:15;2.10;99.90
23556;DHT22;11956;53.184;8.578;2022-11-20T04:34:20;2.10;99.90
23556;DHT22;11956;53.184;8.578;2022-11-20T04:37:21;2.20;99.90
23556;DHT22;11956;53.184;8.578;2022-11-20T04:40:22;2.10;99.90
23556;DHT22;11956;53.184;8.578;2022-11-20T04:43:23;2.10;99.90
23556;DHT22;11956;53.184;8.578;2022-11-20T04:46:25;2.10;99.90
23556;DHT22;11956;53.184;8.578;2022-11-20T04:49:27;2.10;99.90
23556;DHT22;11956;53.184;8.578;2022-11-20T04:52:27;2.10;99.90
23556;DHT22;11956;53.184;8.578;2022-11-20T04:55:28;2.10;99.90
23556;DHT22;11956;53.184;8.578;2022-11-20T04:58:29;2.10;99.90
23556;DHT22;11956;53.184;8.578;2022-11-20T05:01:30;2.10;99.90
23556;DHT22;11956;53.184;8.578;2022-11-20T05:04:33;2.20;99.90
23556;DHT22;11956;53.184;8.578;2022-11-20T05:07:34;2.20;99.90
23556;DHT22;11956;53.184;8.578;2022-11-20T05:10:35;2.10;99.90
23556;DHT22;11956;53.184;8.578;2022-11-20T05:13:36;2.20;99.90
23556;DHT22;11956;53.184;8.578;2022-11-20T05:16:37;2.20;99.90
23556;DHT22;11956;53.184;8.578;2022-11-20T05:19:38;2.30;99.90
23556;DHT22;11956;53.184;8.578;2022-11-20T05:22:39;2.20;99.90
23556;DHT22;11956;53.184;8.578;2022-11-20T05:25:40;2.30;99.90
23556;DHT22;11956;53.184;8.578;2022-11-20T05:28:41;2.30;99.90
23556;DHT22;11956;53.184;8.578;2022-11-20T05:31:42;2.30;99.90
23556;DHT22;11956;53.184;8.578;2022-11-20T05:34:43;2.40;99.90
23556;DHT22;11956;53.184;8.578;2022-11-20T05:37:44;2.40;99.90
23556;DHT22;11956;53.184;8.578;2022-11-20T05:40:45;2.40;99.90
23556;DHT22;11956;53.184;8.578;2022-11-20T05:43:47;2.40;99.90
23556;DHT22;11956;53.184;8.578;2022-11-20T05:46:48;2.50;99.90
23556;DHT22;11956;53.184;8.578;2022-11-20T05:49:49;2.50;99.90
23556;DHT22;11956;53.184;8.578;2022-11-20T05:52:50;2.50;99.90
23556;DHT22;11956;53.184;8.578;2022-11-20T05:56:02;2.50;99.90
23556;DHT22;11956;53.184;8.578;2022-11-20T05:59:04;2.50;99.90
23556;DHT22;11956;53.184;8.578;2022-11-20T06:02:05;2.50;99.90
23556;DHT22;11956;53.184;8.578;2022-11-20T06:05:06;2.50;99.90
23556;DHT22;11956;53.184;8.578;2022-11-20T06:08:07;2.50;99.90
23556;DHT22;11956;53.184;8.578;2022-11-20T06:11:10;2.50;99.90
23556;DHT22;11956;53.184;8.578;2022-11-20T06:14:12;2.40;99.90
23556;DHT22;11956;53.184;8.578;2022-11-20T06:17:13;2.40;99.90
23556;DHT22;11956;53.184;8.578;2022-11-20T06:20:14;2.40;99.90
23556;DHT22;11956;53.184;8.578;2022-11-20T06:23:15;2.30;99.90
23556;DHT22;11956;53.184;8.578;2022-11-20T06:29:19;2.30;99.90
23556;DHT22;11956;53.184;8.578;2022-11-20T06:32:20;2.40;99.90
23556;DHT22;11956;53.184;8.578;2022-11-20T06:35:21;2.40;99.90
23556;DHT22;11956;53.184;8.578;2022-11-20T06:38:22;2.40;99.90
23556;DHT22;11956;53.184;8.578;2022-11-20T06:41:23;2.40;99.90
23556;DHT22;11956;53.184;8.578;2022-11-20T06:44:24;2.50;99.90
23556;DHT22;11956;53.184;8.578;2022-11-20T06:47:25;2.50;99.90
23556;DHT22;11956;53.184;8.578;2022-11-20T06:50:26;2.40;99.90
23556;DHT22;11956;53.184;8.578;2022-11-20T06:53:27;2.30;99.90
23556;DHT22;11956;53.184;8.578;2022-11-20T06:56:28;2.30;99.90
23556;DHT22;11956;53.184;8.578;2022-11-20T06:59:29;2.10;99.90
23556;DHT22;11956;53.184;8.578;2022-11-20T07:02:29;2.00;99.90
23556;DHT22;11956;53.184;8.578;2022-11-20T07:05:30;1.90;99.90
23556;DHT22;11956;53.184;8.578;2022-11-20T07:08:32;1.80;99.90
23556;DHT22;11956;53.184;8.578;2022-11-20T07:11:33;1.70;99.90
23556;DHT22;11956;53.184;8.578;2022-11-20T07:14:34;1.70;99.90
23556;DHT22;11956;53.184;8.578;2022-11-20T07:17:35;1.60;99.90
23556;DHT22;11956;53.184;8.578;2022-11-20T07:20:36;1.60;99.90
23556;DHT22;11956;53.184;8.578;2022-11-20T07:23:37;1.60;99.90
23556;DHT22;11956;53.184;8.578;2022-11-20T07:26:38;1.60;99.90
23556;DHT22;11956;53.184;8.578;2022-11-20T07:29:39;1.70;99.90
23556;DHT22;11956;53.184;8.578;2022-11-20T07:32:40;1.80;99.90
23556;DHT22;11956;53.184;8.578;2022-11-20T07:35:41;1.90;99.90
23556;DHT22;11956;53.184;8.578;2022-11-20T07:38:42;2.10;99.90
23556;DHT22;11956;53.184;8.578;2022-11-20T07:41:43;2.20;99.90
23556;DHT22;11956;53.184;8.578;2022-11-20T07:44:43;2.40;99.90
23556;DHT22;11956;53.184;8.578;2022-11-20T07:47:44;2.60;99.90
23556;DHT22;11956;53.184;8.578;2022-11-20T07:50:45;2.50;99.90
23556;DHT22;11956;53.184;8.578;2022-11-20T07:53:46;2.70;99.90
23556;DHT22;11956;53.184;8.578;2022-11-20T07:56:48;2.80;99.90
23556;DHT22;11956;53.184;8.578;2022-11-20T07:59:49;2.80;99.90
23556;DHT22;11956;53.184;8.578;2022-11-20T08:02:50;2.90;99.90
23556;DHT22;11956;53.184;8.578;2022-11-20T08:05:51;3.10;99.90
23556;DHT22;11956;53.184;8.578;2022-11-20T08:08:52;3.40;99.90
23556;DHT22;11956;53.184;8.578;2022-11-20T08:11:53;3.80;99.90
23556;DHT22;11956;53.184;8.578;2022-11-20T08:15:12;3.90;99.90
23556;DHT22;11956;53.184;8.578;2022-11-20T08:18:13;3.90;99.90
23556;DHT22;11956;53.184;8.578;2022-11-20T08:21:14;3.80;99.90
23556;DHT22;11956;53.184;8.578;2022-11-20T08:24:15;3.70;99.90
23556;DHT22;11956;53.184;8.578;2022-11-20T08:27:16;3.60;99.90
23556;DHT22;11956;53.184;8.578;2022-11-20T08:30:17;3.50;99.90
23556;DHT22;11956;53.184;8.578;2022-11-20T08:33:18;3.50;99.90
23556;DHT22;11956;53.184;8.578;2022-11-20T08:36:20;3.50;99.90
23556;DHT22;11956;53.184;8.578;2022-11-20T08:39:22;3.40;99.90
23556;DHT22;11956;53.184;8.578;2022-11-20T08:42:22;3.40;99.90
23556;DHT22;11956;53.184;8.578;2022-11-20T08:45:23;3.30;99.90
23556;DHT22;11956;53.184;8.578;2022-11-20T08:48:24;3.10;99.90
23556;DHT22;11956;53.184;8.578;2022-11-20T08:51:25;3.00;99.90
23556;DHT22;11956;53.184;8.578;2022-11-20T08:54:26;3.10;99.90
23556;DHT22;11956;53.184;8.578;2022-11-20T08:57:27;3.10;99.90
23556;DHT22;11956;53.184;8.578;2022-11-20T09:00:28;2.90;99.90
23556;DHT22;11956;53.184;8.578;2022-11-20T09:03:29;2.90;99.90
23556;DHT22;11956;53.184;8.578;2022-11-20T09:06:30;2.90;99.90
23556;DHT22;11956;53.184;8.578;2022-11-20T09:09:30;2.90;99.90
23556;DHT22;11956;53.184;8.578;2022-11-20T09:12:31;2.80;99.90
23556;DHT22;11956;53.184;8.578;2022-11-20T09:15:32;2.80;99.90
23556;DHT22;11956;53.184;8.578;2022-11-20T09:18:35;2.80;99.90
23556;DHT22;11956;53.184;8.578;2022-11-20T09:21:39;2.70;99.90
23556;DHT22;11956;53.184;8.578;2022-11-20T09:24:40;2.80;99.90
23556;DHT22;11956;53.184;8.578;2022-11-20T09:27:40;2.70;99.90
23556;DHT22;11956;53.184;8.578;2022-11-20T09:30:46;2.60;99.90
23556;DHT22;11956;53.184;8.578;2022-11-20T09:33:47;2.40;99.90
23556;DHT22;11956;53.184;8.578;2022-11-20T09:36:47;2.40;99.90
23556;DHT22;11956;53.184;8.578;2022-11-20T09:39:48;2.40;99.90
23556;DHT22;11956;53.184;8.578;2022-11-20T09:43:00;2.40;99.90
23556;DHT22;11956;53.184;8.578;2022-11-20T09:46:14;2.30;99.90
23556;DHT22;11956;53.184;8.578;2022-11-20T09:53:36;2.50;99.90
23556;DHT22;11956;53.184;8.578;2022-11-20T09:57:00;2.60;99.90
23556;DHT22;11956;53.184;8.578;2022-11-20T10:00:05;2.70;99.90
23556;DHT22;11956;53.184;8.578;2022-11-20T10:03:32;2.80;99.90
23556;DHT22;11956;53.184;8.578;2022-11-20T10:10:04;2.90;99.90
23556;DHT22;11956;53.184;8.578;2022-11-20T10:17:19;3.00;99.90
23556;DHT22;11956;53.184;8.578;2022-11-20T10:28:21;2.80;99.90
23556;DHT22;11956;53.184;8.578;2022-11-20T10:31:36;2.80;99.90
23556;DHT22;11956;53.184;8.578;2022-11-20T10:37:59;3.00;99.90
23556;DHT22;11956;53.184;8.578;2022-11-20T10:41:02;3.10;99.90
23556;DHT22;11956;53.184;8.578;2022-11-20T10:44:28;3.20;99.90
23556;DHT22;11956;53.184;8.578;2022-11-20T10:47:48;3.20;99.90
23556;DHT22;11956;53.184;8.578;2022-11-20T11:01:25;3.50;99.90
23556;DHT22;11956;53.184;8.578;2022-11-20T11:04:35;3.50;99.90
23556;DHT22;11956;53.184;8.578;2022-11-20T11:07:39;3.50;99.90
23556;DHT22;11956;53.184;8.578;2022-11-20T11:14:10;3.40;99.90
23556;DHT22;11956;53.184;8.578;2022-11-20T11:17:34;3.40;99.90
23556;DHT22;11956;53.184;8.578;2022-11-20T11:20:35;3.30;99.90
23556;DHT22;11956;53.184;8.578;2022-11-20T11:23:41;3.40;99.90
23556;DHT22;11956;53.184;8.578;2022-11-20T11:26:57;3.50;99.90
23556;DHT22;11956;53.184;8.578;2022-11-20T11:30:14;3.50;99.90
23556;DHT22;11956;53.184;8.578;2022-11-20T11:33:28;3.60;99.90
23556;DHT22;11956;53.184;8.578;2022-11-20T11:36:30;3.70;99.90
23556;DHT22;11956;53.184;8.578;2022-11-20T11:39:33;3.70;99.90
23556;DHT22;11956;53.184;8.578;2022-11-20T11:42:34;3.80;99.90
23556;DHT22;11956;53.184;8.578;2022-11-20T11:45:36;3.80;99.90
23556;DHT22;11956;53.184;8.578;2022-11-20T11:48:37;3.90;99.90
23556;DHT22;11956;53.184;8.578;2022-11-20T11:55:09;3.90;99.90
23556;DHT22;11956;53.184;8.578;2022-11-20T12:01:59;3.80;99.90
23556;DHT22;11956;53.184;8.578;2022-11-20T12:05:12;3.70;99.90
23556;DHT22;11956;53.184;8.578;2022-11-20T12:08:56;3.70;99.90
23556;DHT22;11956;53.184;8.578;2022-11-20T12:12:04;3.60;99.90
23556;DHT22;11956;53.184;8.578;2022-11-20T12:15:13;3.80;99.90
23556;DHT22;11956;53.184;8.578;2022-11-20T12:18:23;3.80;99.90
23556;DHT22;11956;53.184;8.578;2022-11-20T12:24:59;3.90;99.90
23556;DHT22;11956;53.184;8.578;2022-11-20T12:28:46;3.70;99.90
23556;DHT22;11956;53.184;8.578;2022-11-20T12:32:05;3.70;99.90
23556;DHT22;11956;53.184;8.578;2022-11-20T12:47:03;3.90;99.90
23556;DHT22;11956;53.184;8.578;2022-11-20T13:01:00;4.30;99.90
23556;DHT22;11956;53.184;8.578;2022-11-20T13:07:35;4.20;99.90
23556;DHT22;11956;53.184;8.578;2022-11-20T13:18:02;4.00;99.90
23556;DHT22;11956;53.184;8.578;2022-11-20T13:21:22;3.80;99.90
23556;DHT22;11956;53.184;8.578;2022-11-20T13:24:35;3.50;99.90
23556;DHT22;11956;53.184;8.578;2022-11-20T13:27:47;3.40;99.90
23556;DHT22;11956;53.184;8.578;2022-11-20T13:30:52;3.30;99.90
23556;DHT22;11956;53.184;8.578;2022-11-20T13:33:55;3.10;99.90
23556;DHT22;11956;53.184;8.578;2022-11-20T13:36:57;3.10;99.90
23556;DHT22;11956;53.184;8.578;2022-11-20T13:43:37;3.20;99.90
23556;DHT22;11956;53.184;8.578;2022-11-20T13:46:43;3.30;99.90
23556;DHT22;11956;53.184;8.578;2022-11-20T13:49:45;3.30;99.90
23556;DHT22;11956;53.184;8.578;2022-11-20T13:53:00;3.40;99.90
23556;DHT22;11956;53.184;8.578;2022-11-20T13:56:14;3.60;99.90
23556;DHT22;11956;53.184;8.578;2022-11-20T14:03:21;3.70;99.90
23556;DHT22;11956;53.184;8.578;2022-11-20T14:06:34;3.60;99.90
23556;DHT22;11956;53.184;8.578;2022-11-20T14:09:53;3.40;99.90
23556;DHT22;11956;53.184;8.578;2022-11-20T14:12:55;3.50;99.90
23556;DHT22;11956;53.184;8.578;2022-11-20T14:15:57;3.40;99.90
23556;DHT22;11956;53.184;8.578;2022-11-20T14:22:23;3.40;99.90
23556;DHT22;11956;53.184;8.578;2022-11-20T14:25:26;3.30;99.90
23556;DHT22;11956;53.184;8.578;2022-11-20T14:28:31;3.30;99.90
23556;DHT22;11956;53.184;8.578;2022-11-20T14:31:33;3.30;99.90
23556;DHT22;11956;53.184;8.578;2022-11-20T14:34:38;3.20;99.90
23556;DHT22;11956;53.184;8.578;2022-11-20T14:37:41;3.10;99.90
23556;DHT22;11956;53.184;8.578;2022-11-20T14:40:42;3.10;99.90
23556;DHT22;11956;53.184;8.578;2022-11-20T14:43:46;3.10;99.90
23556;DHT22;11956;53.184;8.578;2022-11-20T14:46:50;3.10;99.90
23556;DHT22;11956;53.184;8.578;2022-11-20T14:49:52;3.00;99.90
23556;DHT22;11956;53.184;8.578;2022-11-20T14:52:56;3.00;99.90
23556;DHT22;11956;53.184;8.578;2022-11-20T14:56:01;2.90;99.90
23556;DHT22;11956;53.184;8.578;2022-11-20T14:59:03;2.70;99.90
23556;DHT22;11956;53.184;8.578;2022-11-20T15:02:08;2.70;99.90
23556;DHT22;11956;53.184;8.578;2022-11-20T15:05:11;2.60;99.90
23556;DHT22;11956;53.184;8.578;2022-11-20T15:08:14;2.50;99.90
23556;DHT22;11956;53.184;8.578;2022-11-20T15:11:20;2.40;99.90
23556;DHT22;11956;53.184;8.578;2022-11-20T15:14:30;2.30;99.90
23556;DHT22;11956;53.184;8.578;2022-11-20T15:17:32;2.20;99.90
23556;DHT22;11956;53.184;8.578;2022-11-20T15:20:36;1.90;99.90
23556;DHT22;11956;53.184;8.578;2022-11-20T15:23:37;1.80;99.90
23556;DHT22;11956;53.184;8.578;2022-11-20T15:26:38;1.60;99.90
23556;DHT22;11956;53.184;8.578;2022-11-20T15:29:42;1.40;99.90
23556;DHT22;11956;53.184;8.578;2022-11-20T15:32:44;1.20;99.90
23556;DHT22;11956;53.184;8.578;2022-11-20T15:35:45;1.20;99.90
23556;DHT22;11956;53.184;8.578;2022-11-20T15:38:46;1.00;99.90
23556;DHT22;11956;53.184;8.578;2022-11-20T15:41:47;1.00;99.90
23556;DHT22;11956;53.184;8.578;2022-11-20T15:44:48;1.00;99.90
23556;DHT22;11956;53.184;8.578;2022-11-20T15:47:49;0.90;99.90
23556;DHT22;11956;53.184;8.578;2022-11-20T15:53:57;0.80;99.90
23556;DHT22;11956;53.184;8.578;2022-11-20T15:56:58;0.80;99.90
23556;DHT22;11956;53.184;8.578;2022-11-20T16:00:01;0.80;99.90
23556;DHT22;11956;53.184;8.578;2022-11-20T16:03:12;0.70;99.90
23556;DHT22;11956;53.184;8.578;2022-11-20T16:06:14;0.50;99.90
23556;DHT22;11956;53.184;8.578;2022-11-20T16:09:16;0.40;99.90
23556;DHT22;11956;53.184;8.578;2022-11-20T16:12:18;0.30;99.90
23556;DHT22;11956;53.184;8.578;2022-11-20T16:15:38;0.30;99.90
23556;DHT22;11956;53.184;8.578;2022-11-20T16:18:49;0.30;99.90
23556;DHT22;11956;53.184;8.578;2022-11-20T16:21:50;0.30;99.90
23556;DHT22;11956;53.184;8.578;2022-11-20T16:24:51;0.30;99.90
23556;DHT22;11956;53.184;8.578;2022-11-20T16:27:52;0.40;99.90
23556;DHT22;11956;53.184;8.578;2022-11-20T16:30:53;0.50;99.90
23556;DHT22;11956;53.184;8.578;2022-11-20T16:33:56;0.60;99.90
23556;DHT22;11956;53.184;8.578;2022-11-20T16:36:58;0.70;99.90
23556;DHT22;11956;53.184;8.578;2022-11-20T16:39:59;0.70;99.90
23556;DHT22;11956;53.184;8.578;2022-11-20T16:43:18;0.80;99.90
23556;DHT22;11956;53.184;8.578;2022-11-20T16:46:21;0.80;99.90
23556;DHT22;11956;53.184;8.578;2022-11-20T16:49:22;0.80;99.90
23556;DHT22;11956;53.184;8.578;2022-11-20T16:52:24;0.80;99.90
23556;DHT22;11956;53.184;8.578;2022-11-20T16:55:25;0.80;99.90
23556;DHT22;11956;53.184;8.578;2022-11-20T16:58:26;0.80;99.90
23556;DHT22;11956;53.184;8.578;2022-11-20T17:01:27;0.80;99.90
23556;DHT22;11956;53.184;8.578;2022-11-20T17:04:29;0.90;99.90
23556;DHT22;11956;53.184;8.578;2022-11-20T17:07:30;1.00;99.90
23556;DHT22;11956;53.184;8.578;2022-11-20T17:10:31;0.90;99.90
23556;DHT22;11956;53.184;8.578;2022-11-20T17:13:32;1.00;99.90
23556;DHT22;11956;53.184;8.578;2022-11-20T17:16:34;1.00;99.90
23556;DHT22;11956;53.184;8.578;2022-11-20T17:19:36;1.10;99.90
23556;DHT22;11956;53.184;8.578;2022-11-20T17:22:40;1.10;99.90
23556;DHT22;11956;53.184;8.578;2022-11-20T17:25:41;1.20;99.90
23556;DHT22;11956;53.184;8.578;2022-11-20T17:28:46;1.30;99.90
23556;DHT22;11956;53.184;8.578;2022-11-20T17:31:53;1.20;99.90
23556;DHT22;11956;53.184;8.578;2022-11-20T17:34:54;1.20;99.90
23556;DHT22;11956;53.184;8.578;2022-11-20T17:37:55;1.10;99.90
23556;DHT22;11956;53.184;8.578;2022-11-20T17:41:08;1.10;99.90
23556;DHT22;11956;53.184;8.578;2022-11-20T17:44:11;1.00;99.90
23556;DHT22;11956;53.184;8.578;2022-11-20T17:47:12;0.90;99.90
23556;DHT22;11956;53.184;8.578;2022-11-20T17:50:13;0.70;99.90
23556;DHT22;11956;53.184;8.578;2022-11-20T17:53:14;0.60;99.90
23556;DHT22;11956;53.184;8.578;2022-11-20T17:56:16;0.50;99.90
23556;DHT22;11956;53.184;8.578;2022-11-20T17:59:31;0.50;99.90
23556;DHT22;11956;53.184;8.578;2022-11-20T18:02:32;0.40;99.90
23556;DHT22;11956;53.184;8.578;2022-11-20T18:05:33;0.40;99.90
23556;DHT22;11956;53.184;8.578;2022-11-20T18:08:34;0.40;99.90
23556;DHT22;11956;53.184;8.578;2022-11-20T18:11:37;0.20;99.90
23556;DHT22;11956;53.184;8.578;2022-11-20T18:14:41;0.10;99.90
23556;DHT22;11956;53.184;8.578;2022-11-20T18:17:43;0.00;99.90
23556;DHT22;11956;53.184;8.578;2022-11-20T18:20:44;0.00;99.90
23556;DHT22;11956;53.184;8.578;2022-11-20T18:23:44;0.00;99.90
23556;DHT22;11956;53.184;8.578;2022-11-20T18:26:45;0.00;99.90
23556;DHT22;11956;53.184;8.578;2022-11-20T18:29:47;-0.10;99.90
23556;DHT22;11956;53.184;8.578;2022-11-20T18:32:53;-0.10;99.90
23556;DHT22;11956;53.184;8.578;2022-11-20T18:35:55;-0.10;99.90
23556;DHT22;11956;53.184;8.578;2022-11-20T18:38:57;-0.20;99.90
23556;DHT22;11956;53.184;8.578;2022-11-20T18:41:59;-0.20;99.90
23556;DHT22;11956;53.184;8.578;2022-11-20T18:45:19;-0.20;99.90
23556;DHT22;11956;53.184;8.578;2022-11-20T18:48:20;-0.20;99.90
23556;DHT22;11956;53.184;8.578;2022-11-20T18:51:20;-0.30;99.90
23556;DHT22;11956;53.184;8.578;2022-11-20T18:54:21;-0.30;99.90
23556;DHT22;11956;53.184;8.578;2022-11-20T18:57:24;-0.30;99.90
23556;DHT22;11956;53.184;8.578;2022-11-20T19:00:27;-0.30;99.90
23556;DHT22;11956;53.184;8.578;2022-11-20T19:03:28;-0.40;99.90
23556;DHT22;11956;53.184;8.578;2022-11-20T19:06:29;-0.40;99.90
23556;DHT22;11956;53.184;8.578;2022-11-20T19:09:30;-0.30;99.90
23556;DHT22;11956;53.184;8.578;2022-11-20T19:12:31;-0.40;99.90
23556;DHT22;11956;53.184;8.578;2022-11-20T19:15:33;-0.40;99.90
23556;DHT22;11956;53.184;8.578;2022-11-20T19:18:35;-0.40;99.90
23556;DHT22;11956;53.184;8.578;2022-11-20T19:21:36;-0.40;99.90
23556;DHT22;11956;53.184;8.578;2022-11-20T19:24:37;-0.40;99.90
23556;DHT22;11956;53.184;8.578;2022-11-20T19:27:38;-0.40;99.90
23556;DHT22;11956;53.184;8.578;2022-11-20T19:30:40;-0.40;99.90
23556;DHT22;11956;53.184;8.578;2022-11-20T19:33:42;-0.40;99.90
23556;DHT22;11956;53.184;8.578;2022-11-20T19:36:43;-0.30;99.90
23556;DHT22;11956;53.184;8.578;2022-11-20T19:39:44;-0.20;99.90
23556;DHT22;11956;53.184;8.578;2022-11-20T19:42:45;-0.20;99.90
23556;DHT22;11956;53.184;8.578;2022-11-20T19:45:46;-0.20;99.90
23556;DHT22;11956;53.184;8.578;2022-11-20T19:48:47;-0.20;99.90
23556;DHT22;11956;53.184;8.578;2022-11-20T19:51:48;-0.20;99.90
23556;DHT22;11956;53.184;8.578;2022-11-20T19:54:50;-0.20;99.90
23556;DHT22;11956;53.184;8.578;2022-11-20T19:57:51;-0.10;99.90
23556;DHT22;11956;53.184;8.578;2022-11-20T20:00:52;-0.10;99.90
23556;DHT22;11956;53.184;8.578;2022-11-20T20:03:54;-0.10;99.90
23556;DHT22;11956;53.184;8.578;2022-11-20T20:06:56;-0.10;99.90
23556;DHT22;11956;53.184;8.578;2022-11-20T20:09:57;-0.20;99.90
23556;DHT22;11956;53.184;8.578;2022-11-20T20:12:58;-0.20;99.90
23556;DHT22;11956;53.184;8.578;2022-11-20T20:15:59;-0.20;99.90
23556;DHT22;11956;53.184;8.578;2022-11-20T20:19:01;-0.20;99.90
23556;DHT22;11956;53.184;8.578;2022-11-20T20:22:03;-0.20;99.90
23556;DHT22;11956;53.184;8.578;2022-11-20T20:25:04;-0.20;99.90
23556;DHT22;11956;53.184;8.578;2022-11-20T20:28:05;-0.20;99.90
23556;DHT22;11956;53.184;8.578;2022-11-20T20:31:12;-0.20;99.90
23556;DHT22;11956;53.184;8.578;2022-11-20T20:34:15;-0.20;99.90
23556;DHT22;11956;53.184;8.578;2022-11-20T20:37:15;-0.20;99.90
23556;DHT22;11956;53.184;8.578;2022-11-20T20:40:17;-0.20;99.90
23556;DHT22;11956;53.184;8.578;2022-11-20T20:43:18;-0.20;99.90
23556;DHT22;11956;53.184;8.578;2022-11-20T20:46:19;-0.20;99.90
23556;DHT22;11956;53.184;8.578;2022-11-20T20:49:20;-0.20;99.90
23556;DHT22;11956;53.184;8.578;2022-11-20T20:52:21;-0.20;99.90
23556;DHT22;11956;53.184;8.578;2022-11-20T20:55:22;-0.20;99.90
23556;DHT22;11956;53.184;8.578;2022-11-20T20:58:24;-0.20;99.90
23556;DHT22;11956;53.184;8.578;2022-11-20T21:01:26;-0.20;99.90
23556;DHT22;11956;53.184;8.578;2022-11-20T21:04:29;-0.30;99.90
23556;DHT22;11956;53.184;8.578;2022-11-20T21:07:30;-0.20;99.90
23556;DHT22;11956;53.184;8.578;2022-11-20T21:10:31;-0.30;99.90
23556;DHT22;11956;53.184;8.578;2022-11-20T21:13:35;-0.20;99.90
23556;DHT22;11956;53.184;8.578;2022-11-20T21:16:36;-0.20;99.90
23556;DHT22;11956;53.184;8.578;2022-11-20T21:19:43;-0.20;99.90